createdAt,value
2024-05-09T00:00:42.541Z,101313.56
2024-05-09T00:03:11.050Z,101314.50
2024-05-09T00:05:41.291Z,101304.50
2024-05-09T00:08:09.843Z,101307.25
2024-05-09T00:10:39.195Z,101299.47
2024-05-09T00:13:08.124Z,101306.94
2024-05-09T00:15:36.355Z,101301.03
2024-05-09T00:18:04.768Z,101303.44
2024-05-09T00:20:37.912Z,101305.81
2024-05-09T00:23:12.606Z,101308.03
2024-05-09T00:25:42.927Z,101306.19
2024-05-09T00:28:11.642Z,101310.13
2024-05-09T00:30:38.663Z,101309.28
2024-05-09T00:33:07.267Z,101309.69
2024-05-09T00:35:35.718Z,101299.63
2024-05-09T00:38:03.296Z,101310.69
2024-05-09T00:40:39.870Z,101312.97
2024-05-09T00:43:10.658Z,101300.31
2024-05-09T00:45:37.976Z,101300.09
2024-05-09T00:48:07.810Z,101299.13
2024-05-09T00:50:38.987Z,101305.72
2024-05-09T00:53:14.677Z,101304.22
2024-05-09T00:55:42.759Z,101303.94
2024-05-09T00:58:12.475Z,101307.84
2024-05-09T01:01:11.798Z,101309.13
2024-05-09T01:03:39.101Z,101315.75
2024-05-09T01:06:06.297Z,101309.00
2024-05-09T01:08:33.621Z,101318.00
2024-05-09T01:11:00.929Z,101314.03
2024-05-09T01:13:28.058Z,101314.31
2024-05-09T01:15:55.680Z,101319.66
2024-05-09T01:18:23.146Z,101327.22
2024-05-09T01:20:50.417Z,101324.78
2024-05-09T01:23:17.615Z,101316.81
2024-05-09T01:25:46.127Z,101330.75
2024-05-09T01:28:14.168Z,101325.13
2024-05-09T01:30:41.248Z,101318.34
2024-05-09T01:33:10.397Z,101315.25
2024-05-09T01:35:41.303Z,101316.66
2024-05-09T01:38:10.047Z,101315.59
2024-05-09T01:40:39.758Z,101313.09
2024-05-09T01:43:09.541Z,101308.44
2024-05-09T01:45:38.313Z,101311.47
2024-05-09T01:48:06.111Z,101307.84
2024-05-09T01:50:38.284Z,101314.00
2024-05-09T01:53:10.087Z,101315.09
2024-05-09T01:55:37.575Z,101320.72
2024-05-09T01:58:04.922Z,101320.50
2024-05-09T02:00:38.892Z,101316.88
2024-05-09T02:03:16.411Z,101316.06
2024-05-09T02:05:46.771Z,101322.44
2024-05-09T02:08:16.035Z,101329.28
2024-05-09T02:10:44.853Z,101330.78
2024-05-09T02:13:12.678Z,101324.13
2024-05-09T02:15:39.940Z,101323.59
2024-05-09T02:18:08.408Z,101320.03
2024-05-09T02:20:39.061Z,101322.38
2024-05-09T02:23:07.023Z,101325.72
2024-05-09T02:25:34.602Z,101326.69
2024-05-09T02:28:01.945Z,101326.13
2024-05-09T02:30:38.225Z,101324.59
2024-05-09T02:33:13.394Z,101327.75
2024-05-09T02:35:43.082Z,101322.94
2024-05-09T02:38:11.210Z,101323.47
2024-05-09T02:40:39.725Z,101325.00
2024-05-09T02:43:09.577Z,101313.75
2024-05-09T02:45:38.379Z,101313.75
2024-05-09T02:48:06.854Z,101309.41
2024-05-09T02:50:38.627Z,101303.84
2024-05-09T02:53:08.628Z,101298.00
2024-05-09T02:55:36.451Z,101304.06
2024-05-09T02:58:03.831Z,101308.25
2024-05-09T03:00:38.396Z,101303.22
2024-05-09T03:03:10.170Z,101301.72
2024-05-09T03:05:39.765Z,101307.31
2024-05-09T03:08:07.437Z,101306.09
2024-05-09T03:10:36.409Z,101313.22
2024-05-09T03:13:10.030Z,101311.19
2024-05-09T03:15:37.201Z,101308.38
2024-05-09T03:18:06.548Z,101310.25
2024-05-09T03:20:35.867Z,101313.06
2024-05-09T03:23:05.633Z,101305.81
2024-05-09T03:25:33.626Z,101315.09
2024-05-09T03:28:00.955Z,101313.06
2024-05-09T03:30:38.426Z,101317.91
2024-05-09T03:33:18.671Z,101318.97
2024-05-09T03:35:47.562Z,101322.03
2024-05-09T03:38:15.009Z,101316.91
2024-05-09T03:40:49.901Z,101322.28
2024-05-09T03:43:18.966Z,101326.66
2024-05-09T03:45:49.529Z,101326.66
2024-05-09T03:48:17.239Z,101332.75
2024-05-09T03:50:44.645Z,101335.00
2024-05-09T03:53:13.418Z,101324.81
2024-05-09T03:55:40.820Z,101327.59
2024-05-09T03:58:08.585Z,101324.50
2024-05-09T04:00:39.163Z,101325.50
2024-05-09T04:03:10.354Z,101318.59
2024-05-09T04:05:41.607Z,101316.31
2024-05-09T04:08:10.398Z,101325.19
2024-05-09T04:10:37.952Z,101326.75
2024-05-09T04:13:05.443Z,101325.19
2024-05-09T04:15:32.851Z,101323.84
2024-05-09T04:18:00.752Z,101325.38
2024-05-09T04:20:36.619Z,101321.34
2024-05-09T04:23:08.682Z,101321.81
2024-05-09T04:25:37.243Z,101335.06
2024-05-09T04:28:05.313Z,101332.69
2024-05-09T04:30:38.625Z,101339.53
2024-05-09T04:33:11.144Z,101332.63
2024-05-09T04:35:42.073Z,101334.88
2024-05-09T04:38:09.632Z,101347.13
2024-05-09T04:40:37.771Z,101344.38
2024-05-09T04:43:06.709Z,101350.19
2024-05-09T04:45:34.502Z,101345.03
2024-05-09T04:48:02.286Z,101342.00
2024-05-09T04:50:36.153Z,101339.00
2024-05-09T04:53:08.179Z,101344.53
2024-05-09T04:55:36.694Z,101336.25
2024-05-09T04:58:03.845Z,101349.97
2024-05-09T05:00:36.491Z,101347.84
2024-05-09T05:03:08.533Z,101359.84
2024-05-09T05:05:41.821Z,101364.50
2024-05-09T05:08:19.208Z,101376.81
2024-05-09T05:10:48.532Z,101370.66
2024-05-09T05:13:20.963Z,101373.25
2024-05-09T05:15:51.468Z,101374.56
2024-05-09T05:18:19.789Z,101371.06
2024-05-09T05:20:47.583Z,101377.16
2024-05-09T05:23:18.448Z,101379.16
2024-05-09T05:25:48.165Z,101376.56
2024-05-09T05:28:19.849Z,101375.34
2024-05-09T05:30:47.114Z,101378.72
2024-05-09T05:33:16.083Z,101376.50
2024-05-09T05:35:43.798Z,101368.53
2024-05-09T05:38:11.279Z,101384.00
2024-05-09T05:40:40.233Z,101383.16
2024-05-09T05:43:09.764Z,101376.56
2024-05-09T05:45:37.159Z,101386.16
2024-05-09T05:48:06.094Z,101392.75
2024-05-09T05:50:38.469Z,101383.50
2024-05-09T05:53:08.090Z,101380.88
2024-05-09T05:55:40.380Z,101388.44
2024-05-09T05:58:11.537Z,101389.31
2024-05-09T06:00:40.500Z,101385.44
2024-05-09T06:03:09.597Z,101393.38
2024-05-09T06:05:40.435Z,101399.69
2024-05-09T06:08:08.576Z,101396.75
2024-05-09T06:10:39.361Z,101399.72
2024-05-09T06:13:11.386Z,101399.69
2024-05-09T06:15:40.363Z,101396.44
2024-05-09T06:18:09.477Z,101400.28
2024-05-09T06:20:39.864Z,101400.06
2024-05-09T06:23:08.578Z,101402.50
2024-05-09T06:25:39.229Z,101404.13
2024-05-09T06:28:06.629Z,101406.47
2024-05-09T06:30:40.170Z,101403.50
2024-05-09T06:33:12.291Z,101405.94
2024-05-09T06:35:41.406Z,101406.34
2024-05-09T06:38:09.353Z,101405.28
2024-05-09T06:40:41.298Z,101403.41
2024-05-09T06:43:13.832Z,101401.59
2024-05-09T06:45:41.242Z,101409.44
2024-05-09T06:48:11.915Z,101405.63
2024-05-09T06:50:40.461Z,101420.44
2024-05-09T06:53:11.527Z,101419.47
2024-05-09T06:55:38.666Z,101414.88
2024-05-09T06:58:07.077Z,101406.59
2024-05-09T07:00:39.170Z,101413.41
2024-05-09T07:03:12.032Z,101414.81
2024-05-09T07:05:40.748Z,101422.41
2024-05-09T07:08:08.118Z,101421.22
2024-05-09T07:10:36.570Z,101429.66
2024-05-09T07:13:15.106Z,101416.72
2024-05-09T07:15:42.936Z,101426.78
2024-05-09T07:18:20.398Z,101425.22
2024-05-09T07:20:49.423Z,101416.59
2024-05-09T07:23:18.333Z,101426.63
2024-05-09T07:25:46.634Z,101417.22
2024-05-09T07:28:16.098Z,101423.63
2024-05-09T07:30:43.818Z,101422.16
2024-05-09T07:33:17.609Z,101422.22
2024-05-09T07:35:44.930Z,101416.16
2024-05-09T07:38:12.009Z,101421.66
2024-05-09T07:40:40.539Z,101420.22
2024-05-09T07:43:08.927Z,101413.63
2024-05-09T07:53:37.062Z,101423.38
2024-05-09T07:55:57.194Z,101423.69
2024-05-09T07:58:27.814Z,101427.78
2024-05-09T08:00:55.389Z,101417.72
2024-05-09T08:03:23.284Z,101419.31
2024-05-09T08:05:52.063Z,101422.28
2024-05-09T08:08:19.087Z,101427.88
2024-05-09T08:10:46.558Z,101419.91
2024-05-09T08:13:13.968Z,101412.00
2024-05-09T08:15:41.438Z,101421.28
2024-05-09T08:18:09.940Z,101416.81
2024-05-09T08:20:38.249Z,101415.38
2024-05-09T08:23:05.716Z,101417.22
2024-05-09T08:25:33.026Z,101417.16
2024-05-09T08:28:00.461Z,101421.38
2024-05-09T08:30:33.683Z,101412.84
2024-05-09T08:33:05.641Z,101418.22
2024-05-09T08:35:33.974Z,101410.25
2024-05-09T08:38:03.161Z,101411.75
2024-05-09T08:40:35.710Z,101415.56
2024-05-09T08:43:12.780Z,101409.50
2024-05-09T08:45:44.407Z,101418.72
2024-05-09T08:48:15.477Z,101416.94
2024-05-09T08:50:44.523Z,101413.28
2024-05-09T08:53:12.479Z,101408.34
2024-05-09T08:55:43.188Z,101414.84
2024-05-09T08:58:16.241Z,101420.00
2024-05-09T09:00:45.949Z,101409.44
2024-05-09T09:03:17.726Z,101414.72
2024-05-09T09:06:07.444Z,101406.53
2024-05-09T09:08:34.824Z,101408.84
2024-05-09T09:11:02.007Z,101416.81
2024-05-09T09:13:29.225Z,101416.13
2024-05-09T09:15:59.384Z,101411.41
2024-05-09T09:18:28.056Z,101414.78
2024-05-09T09:20:55.925Z,101412.47
2024-05-09T09:23:23.203Z,101409.28
2024-05-09T09:25:50.226Z,101413.69
2024-05-09T09:28:18.699Z,101412.28
2024-05-09T09:30:45.926Z,101410.88
2024-05-09T09:33:13.268Z,101414.97
2024-05-09T09:35:42.387Z,101409.41
2024-05-09T09:38:10.735Z,101414.44
2024-05-09T09:40:48.144Z,101421.69
2024-05-09T09:43:23.934Z,101422.47
2024-05-09T09:45:53.891Z,101418.25
2024-05-09T09:48:22.362Z,101421.34
2024-05-09T09:50:51.998Z,101422.88
2024-05-09T09:53:20.106Z,101430.75
2024-05-09T09:55:48.471Z,101417.16
2024-05-09T09:58:18.735Z,101421.97
2024-05-09T10:00:46.235Z,101412.31
2024-05-09T10:03:13.521Z,101421.25
2024-05-09T10:05:44.006Z,101418.72
2024-05-09T10:08:14.503Z,101409.41
2024-05-09T10:10:46.767Z,101413.88
2024-05-09T10:13:14.018Z,101410.78
2024-05-09T10:15:46.013Z,101421.03
2024-05-09T10:18:15.363Z,101413.03
2024-05-09T10:20:44.179Z,101410.03
2024-05-09T10:23:25.808Z,101417.78
2024-05-09T10:26:05.222Z,101408.31
2024-05-09T10:28:36.973Z,101409.91
2024-05-09T10:31:11.765Z,101410.41
2024-05-09T10:33:52.614Z,101410.69
2024-05-09T10:36:26.730Z,101410.56
2024-05-09T10:38:55.205Z,101405.06
2024-05-09T10:41:23.777Z,101400.75
2024-05-09T10:43:51.788Z,101399.66
2024-05-09T10:46:19.503Z,101404.50
2024-05-09T10:48:48.636Z,101399.13
2024-05-09T10:51:17.204Z,101394.69
2024-05-09T10:53:46.037Z,101391.84
2024-05-09T10:56:16.590Z,101380.97
2024-05-09T10:58:44.618Z,101383.34
2024-05-09T11:01:13.443Z,101376.31
2024-05-09T11:03:41.186Z,101383.28
2024-05-09T11:06:09.936Z,101375.22
2024-05-09T11:08:38.118Z,101368.59
2024-05-09T11:11:08.024Z,101372.59
2024-05-09T11:13:37.963Z,101364.88
2024-05-09T11:16:07.423Z,101350.81
2024-05-09T11:18:38.219Z,101375.66
2024-05-09T11:21:13.210Z,101368.78
2024-05-09T11:23:41.018Z,101364.84
2024-05-09T11:26:09.192Z,101359.94
2024-05-09T11:28:36.655Z,101365.38
2024-05-09T11:31:08.574Z,101362.75
2024-05-09T11:33:39.931Z,101370.13
2024-05-09T11:36:08.176Z,101358.78
2024-05-09T11:38:35.256Z,101355.88
2024-05-09T11:41:03.583Z,101350.84
2024-05-09T11:43:31.002Z,101353.06
2024-05-09T11:45:58.665Z,101349.19
2024-05-09T11:48:26.946Z,101351.84
2024-05-09T11:50:55.566Z,101341.31
2024-05-09T11:53:22.945Z,101343.72
2024-05-09T11:55:50.238Z,101340.28
2024-05-09T11:58:18.561Z,101339.97
2024-05-09T12:00:47.100Z,101337.47
2024-05-09T12:03:14.799Z,101337.63
2024-05-09T12:05:42.414Z,101332.81
2024-05-09T12:08:09.787Z,101334.38
2024-05-09T12:10:37.523Z,101330.59
2024-05-09T12:13:06.592Z,101330.69
2024-05-09T12:15:38.385Z,101331.78
2024-05-09T12:18:09.313Z,101322.44
2024-05-09T12:20:39.244Z,101321.19
2024-05-09T12:23:10.595Z,101320.09
2024-05-09T12:25:39.510Z,101318.84
2024-05-09T12:28:07.971Z,101319.03
2024-05-09T12:30:39.776Z,101317.66
2024-05-09T12:33:09.726Z,101306.66
2024-05-09T12:35:39.157Z,101313.16
2024-05-09T12:38:06.264Z,101314.03
2024-05-09T12:40:37.029Z,101312.88
2024-05-09T12:43:10.849Z,101308.66
2024-05-09T12:45:39.306Z,101310.22
2024-05-09T12:48:12.168Z,101305.03
2024-05-09T12:50:41.109Z,101303.97
2024-05-09T12:53:08.492Z,101294.56
2024-05-09T12:55:44.161Z,101300.72
2024-05-09T12:58:22.396Z,101294.69
2024-05-09T13:00:51.838Z,101298.56
2024-05-09T13:03:19.385Z,101297.88
2024-05-09T13:05:46.999Z,101290.28
2024-05-09T13:08:14.278Z,101283.22
2024-05-09T13:10:41.675Z,101279.47
2024-05-09T13:13:10.254Z,101282.34
2024-05-09T13:15:37.726Z,101280.88
2024-05-09T13:18:06.481Z,101282.13
2024-05-09T13:20:35.622Z,101284.16
2024-05-09T13:23:05.509Z,101276.16
2024-05-09T13:25:35.036Z,101278.81
2024-05-09T13:28:03.749Z,101275.53
2024-05-09T13:30:39.105Z,101267.31
2024-05-09T13:33:14.093Z,101271.78
2024-05-09T13:35:47.044Z,101263.41
2024-05-09T13:38:22.048Z,101260.50
2024-05-09T13:40:50.612Z,101253.94
2024-05-09T13:43:18.762Z,101259.13
2024-05-09T13:45:46.634Z,101252.81
2024-05-09T13:48:14.062Z,101258.31
2024-05-09T13:50:41.591Z,101244.81
2024-05-09T13:53:09.232Z,101243.94
2024-05-09T13:55:40.197Z,101243.50
2024-05-09T13:58:08.698Z,101238.97
2024-05-09T14:00:45.062Z,101240.91
2024-05-09T14:03:17.981Z,101243.03
2024-05-09T14:05:47.174Z,101243.63
2024-05-09T14:08:15.824Z,101236.59
2024-05-09T14:10:47.270Z,101231.16
2024-05-09T14:13:15.238Z,101229.53
2024-05-09T14:15:42.526Z,101228.25
2024-05-09T14:18:13.117Z,101224.44
2024-05-09T14:20:41.981Z,101225.25
2024-05-09T14:23:09.179Z,101220.84
2024-05-09T14:25:40.379Z,101225.25
2024-05-09T14:28:10.118Z,101224.28
2024-05-09T14:30:38.593Z,101215.16
2024-05-09T14:33:07.832Z,101216.81
2024-05-09T14:35:37.923Z,101209.56
2024-05-09T14:38:07.276Z,101216.28
2024-05-09T14:40:41.548Z,101214.81
2024-05-09T14:43:12.563Z,101210.97
2024-05-09T14:45:40.368Z,101205.19
2024-05-09T14:48:08.261Z,101207.94
2024-05-09T14:50:38.662Z,101211.00
2024-05-09T14:53:08.837Z,101214.00
2024-05-09T14:55:37.841Z,101215.16
2024-05-09T14:58:09.630Z,101208.38
2024-05-09T15:00:41.686Z,101213.25
2024-05-09T15:03:13.203Z,101210.97
2024-05-09T15:05:40.762Z,101202.34
2024-05-09T15:08:08.786Z,101205.50
2024-05-09T15:10:37.203Z,101203.09
2024-05-09T15:13:07.783Z,101200.13
2024-05-09T15:15:37.055Z,101207.16
2024-05-09T15:18:05.690Z,101203.59
2024-05-09T15:20:36.192Z,101203.53
2024-05-09T15:23:06.690Z,101198.31
2024-05-09T15:25:36.246Z,101202.28
2024-05-09T15:28:04.922Z,101198.59
2024-05-09T15:30:33.862Z,101191.97
2024-05-09T15:33:06.445Z,101194.16
2024-05-09T15:35:35.930Z,101186.84
2024-05-09T15:38:04.365Z,101181.41
2024-05-09T15:40:38.904Z,101176.56
2024-05-09T15:43:10.293Z,101179.41
2024-05-09T15:45:39.291Z,101171.03
2024-05-09T15:48:07.704Z,101173.22
2024-05-09T15:50:39.307Z,101174.06
2024-05-09T15:53:09.863Z,101176.72
2024-05-09T15:55:38.266Z,101166.66
2024-05-09T15:58:06.435Z,101157.97
2024-05-09T16:00:39.115Z,101165.50
2024-05-09T16:03:10.492Z,101161.94
2024-05-09T16:05:38.434Z,101168.53
2024-05-09T16:08:06.813Z,101161.19
2024-05-09T16:10:35.213Z,101159.09
2024-05-09T16:13:03.759Z,101148.13
2024-05-09T16:15:31.336Z,101152.47
2024-05-09T16:17:58.818Z,101141.03
2024-05-09T16:20:34.862Z,101145.56
2024-05-09T16:23:07.848Z,101143.97
2024-05-09T16:25:35.072Z,101145.63
2024-05-09T16:28:06.260Z,101137.25
2024-05-09T16:30:36.658Z,101139.03
2024-05-09T16:33:05.110Z,101148.31
2024-05-09T16:35:34.626Z,101143.34
2024-05-09T16:38:03.163Z,101151.06
2024-05-09T16:40:37.663Z,101146.44
2024-05-09T16:43:11.213Z,101154.41
2024-05-09T16:45:40.225Z,101162.16
2024-05-09T16:48:08.451Z,101151.16
2024-05-09T16:50:36.757Z,101159.97
2024-05-09T16:53:06.076Z,101158.97
2024-05-09T16:55:34.658Z,101154.09
2024-05-09T16:58:02.753Z,101148.72
2024-05-09T17:00:39.381Z,101154.31
2024-05-09T17:03:12.741Z,101150.22
2024-05-09T17:05:41.494Z,101151.56
2024-05-09T17:08:09.023Z,101144.38
2024-05-09T17:10:36.725Z,101150.31
2024-05-09T17:13:05.929Z,101145.56
2024-05-09T17:15:34.972Z,101139.75
2024-05-09T17:18:02.806Z,101149.78
2024-05-09T17:20:34.473Z,101142.94
2024-05-09T17:23:05.970Z,101145.63
2024-05-09T17:25:34.132Z,101152.16
2024-05-09T17:28:07.656Z,101150.28
2024-05-09T17:30:38.324Z,101143.13
2024-05-09T17:33:08.804Z,101151.66
2024-05-09T17:35:37.194Z,101145.59
2024-05-09T17:38:05.953Z,101142.75
2024-05-09T17:40:36.146Z,101147.03
2024-05-09T17:43:07.053Z,101151.91
2024-05-09T17:45:37.830Z,101148.16
2024-05-09T17:48:05.931Z,101150.47
2024-05-09T17:50:36.085Z,101151.63
2024-05-09T17:53:06.440Z,101144.84
2024-05-09T17:55:34.188Z,101143.13
2024-05-09T17:58:01.825Z,101136.94
2024-05-09T18:00:37.274Z,101147.16
2024-05-09T18:03:08.938Z,101142.28
2024-05-09T18:05:37.305Z,101147.56
2024-05-09T18:08:06.611Z,101147.22
2024-05-09T18:10:37.973Z,101160.84
2024-05-09T18:13:08.495Z,101157.44
2024-05-09T18:15:36.021Z,101161.63
2024-05-09T18:18:04.019Z,101165.41
2024-05-09T18:20:40.286Z,101160.34
2024-05-09T18:23:11.750Z,101165.44
2024-05-09T18:25:38.797Z,101168.47
2024-05-09T18:28:06.963Z,101180.19
2024-05-09T18:30:36.423Z,101176.59
2024-05-09T18:33:06.552Z,101170.75
2024-05-09T18:35:36.999Z,101173.75
2024-05-09T18:38:05.609Z,101174.13
2024-05-09T18:40:36.171Z,101173.59
2024-05-09T18:43:08.153Z,101178.28
2024-05-09T18:45:39.776Z,101176.75
2024-05-09T18:48:09.100Z,101182.22
2024-05-09T18:50:39.532Z,101177.88
2024-05-09T18:53:11.761Z,101178.41
2024-05-09T18:55:40.744Z,101185.41
2024-05-09T18:58:07.933Z,101185.41
2024-05-09T19:00:38.617Z,101186.34
2024-05-09T19:03:11.728Z,101189.91
2024-05-09T19:05:43.272Z,101200.81
2024-05-09T19:08:11.557Z,101205.31
2024-05-09T19:10:39.233Z,101199.59
2024-05-09T19:13:11.095Z,101210.31
2024-05-09T19:15:40.930Z,101210.88
2024-05-09T19:18:09.729Z,101212.00
2024-05-09T19:20:37.668Z,101216.47
2024-05-09T19:23:06.536Z,101228.16
2024-05-09T19:25:34.859Z,101233.72
2024-05-09T19:28:02.290Z,101230.28
2024-05-09T19:30:37.774Z,101235.94
2024-05-09T19:33:09.587Z,101245.94
2024-05-09T19:35:37.537Z,101242.09
2024-05-09T19:38:05.513Z,101242.06
2024-05-09T19:40:34.254Z,101252.22
2024-05-09T19:43:03.152Z,101256.59
2024-05-09T19:45:32.852Z,101260.38
2024-05-09T19:48:00.855Z,101263.72
2024-05-09T19:50:36.907Z,101261.03
2024-05-09T19:53:10.724Z,101263.06
2024-05-09T19:55:38.467Z,101268.44
2024-05-09T19:58:07.250Z,101275.63
2024-05-09T20:00:41.684Z,101270.84
2024-05-09T20:03:12.538Z,101273.34
2024-05-09T20:05:40.295Z,101276.63
2024-05-09T20:08:07.900Z,101283.25
2024-05-09T20:10:36.365Z,101294.09
2024-05-09T20:13:06.444Z,101289.44
2024-05-09T20:15:36.848Z,101291.38
2024-05-09T20:18:05.076Z,101295.09
2024-05-09T20:20:38.885Z,101294.13
2024-05-09T20:23:10.001Z,101301.81
2024-05-09T20:25:37.624Z,101302.84
2024-05-09T20:28:06.252Z,101300.75
2024-05-09T20:30:35.030Z,101300.91
2024-05-09T20:33:04.915Z,101299.47
2024-05-09T20:35:33.537Z,101309.69
2024-05-09T20:38:02.050Z,101313.19
2024-05-09T20:40:34.413Z,101311.94
2024-05-09T20:43:05.596Z,101306.66
2024-05-09T20:45:33.523Z,101312.09
2024-05-09T20:48:01.079Z,101306.78
2024-05-09T20:50:36.654Z,101315.75
2024-05-09T20:53:12.633Z,101317.47
2024-05-09T20:55:40.949Z,101316.81
2024-05-09T20:58:09.615Z,101313.38
2024-05-09T21:00:40.838Z,101309.47
2024-05-09T21:03:11.713Z,101312.66
2024-05-09T21:05:40.000Z,101314.75
2024-05-09T21:08:07.803Z,101321.19
2024-05-09T21:10:36.715Z,101319.28
2024-05-09T21:13:05.391Z,101320.78
2024-05-09T21:15:33.264Z,101321.44
2024-05-09T21:18:00.511Z,101317.91
2024-05-09T21:20:31.524Z,101308.88
2024-05-09T21:23:01.590Z,101325.28
2024-05-09T21:25:29.627Z,101310.41
2024-05-09T21:27:56.821Z,101312.47
2024-05-09T21:30:32.636Z,101310.31
2024-05-09T21:33:13.750Z,101309.13
2024-05-09T21:35:43.687Z,101312.47
2024-05-09T21:38:11.242Z,101314.22
2024-05-09T21:40:38.888Z,101311.19
2024-05-09T21:43:08.903Z,101314.97
2024-05-09T21:45:37.176Z,101310.84
2024-05-09T21:48:05.346Z,101308.25
2024-05-09T21:50:39.586Z,101309.53
2024-05-09T21:53:12.721Z,101319.94
2024-05-09T21:55:40.477Z,101316.16
2024-05-09T21:58:07.846Z,101328.03
2024-05-09T22:00:38.252Z,101329.78
2024-05-09T22:03:08.133Z,101332.59
2024-05-09T22:05:36.415Z,101331.31
2024-05-09T22:08:04.006Z,101334.25
2024-05-09T22:10:34.826Z,101334.81
2024-05-09T22:13:07.314Z,101337.75
2024-05-09T22:15:36.464Z,101336.66
2024-05-09T22:18:04.852Z,101332.97
2024-05-09T22:20:37.262Z,101343.63
2024-05-09T22:23:07.014Z,101345.91
2024-05-09T22:25:34.414Z,101348.19
2024-05-09T22:28:02.709Z,101354.69
2024-05-09T22:30:36.212Z,101355.22
2024-05-09T22:33:11.678Z,101352.31
2024-05-09T22:35:40.552Z,101346.88
2024-05-09T22:38:07.948Z,101352.53
2024-05-09T22:40:45.578Z,101356.22
2024-05-09T22:43:21.522Z,101357.19
2024-05-09T22:45:51.235Z,101357.06
2024-05-09T22:48:18.801Z,101364.22
2024-05-09T22:50:46.120Z,101358.88
2024-05-09T22:53:13.156Z,101368.19
2024-05-09T22:55:40.264Z,101362.69
2024-05-09T22:58:07.557Z,101366.50
2024-05-09T23:00:35.170Z,101363.34
2024-05-09T23:03:03.120Z,101360.19
2024-05-09T23:05:31.000Z,101365.91
2024-05-09T23:07:58.318Z,101367.00
2024-05-09T23:10:32.238Z,101371.56
2024-05-09T23:13:04.116Z,101366.78
2024-05-09T23:15:31.582Z,101370.03
2024-05-09T23:17:59.137Z,101365.91
2024-05-09T23:20:35.922Z,101367.63
2024-05-09T23:23:06.904Z,101367.50
2024-05-09T23:25:34.385Z,101369.31
2024-05-09T23:28:01.851Z,101371.53
2024-05-09T23:30:36.958Z,101375.03
2024-05-09T23:33:08.005Z,101376.09
2024-05-09T23:35:35.389Z,101377.81
2024-05-09T23:38:02.551Z,101375.97
2024-05-09T23:40:38.177Z,101378.88
2024-05-09T23:43:12.116Z,101372.75
2024-05-09T23:45:40.129Z,101374.97
2024-05-09T23:48:08.279Z,101367.22
2024-05-09T23:50:37.994Z,101369.56
2024-05-09T23:53:08.312Z,101364.63
2024-05-09T23:55:36.425Z,101360.28
2024-05-09T23:58:03.707Z,101368.63
